Terminal Aerodrome Forecast
Issued by NWS Wilmington, OH

Current Version | Previous Version | Graphics & Text | Print | Product List | Glossary On
Versions: 1 2 3 4 5 6 7 8 9 10 11 12 13 14
000
FTUS41 KILN 041700
TAFDAY
TAF
KDAY 041720Z 0418/0518 02007KT P6SM FEW050
     FM050000 VRB03KT P6SM SKC
     FM051300 11004KT P6SM SCT050=

USA.gov is the U.S. government's official web portal to all federal, state and local government web resources and services.